Thunder radar more information blitzortung!


Löydät sääaseman tiedot myös:

European Weather Network

Finland Weather Exchange

Weather Underground

AWEKAS



Weather Underground säähistoriasivu

Päivittäin yhteenveto Elokuu 18, 2017 Yksiköt:  Englantilaiset    Metriset   Molemmat
« Edellinen Päivä
Seuraava Päivä »
Päivittäin Viikoittain Kuukausittain Vuosittain Mukautettu
  Korkea: Matala: Keskiarvo:
Lämpötila: TemperatureC °F 13.3 °F 17.1 °F
Kastepiste: DewpointC °F 12.4 °F 13.9 °F
Kosteus: Humidity % 57 % 82 %
Tuulen nopeus: WindSpeedKMH mph 0.0 mph 0.9 mph
Tuulenpuuska: WindSpeedGustKMH mph - -
Tuuli:- - SSW
Ilmanpaine: PressurehPa in 1009.7 in -
Sade: 0.0 in    
Historical Graphs
 
 
Taulukkotiedot Elokuu 18, 2017
Aika Lämpötila Kastepiste Ilmanpaine Tuuli Tuulen nopeus Tuulenpuuska Kosteus Sademäärä (tunneittain)
TemperatureC °F DewpointC °F PressurehPa in Calm     Humidity % HourlyPrecipMM in
00:00 13.7 °F 12.7 °F 1015.5 in Calm     94 % 0.0 in
00:15 13.4 °F 12.4 °F 1015.1 in Calm     94 % 0.0 in
00:30 13.3 °F 12.5 °F 1015.1 in Calm     95 % 0.0 in
00:45 13.3 °F 12.5 °F 1015.1 in Calm     95 % 0.0 in
01:00 13.6 °F 12.8 °F 1015.1 in Calm     95 % 0.0 in
01:15 13.8 °F 13.2 °F 1014.8 in Calm   1.6 mph 96 % 0.0 in
01:30 13.9 °F 13.1 °F 1014.8 in Calm     95 % 0.0 in
01:45 13.8 °F 13.0 °F 1014.8 in Calm     95 % 0.0 in
02:00 13.8 °F 13.0 °F 1014.4 in Calm     95 % 0.0 in
02:15 13.7 °F 12.9 °F 1014.4 in Calm     95 % 0.0 in
02:30 13.7 °F 13.1 °F 1014.4 in Calm     96 % 0.0 in
02:45 13.8 °F 13.2 °F 1014.4 in Calm     96 % 0.0 in
03:00 13.8 °F 13.0 °F 1014.4 in Calm     95 % 0.0 in
03:15 13.8 °F 13.0 °F 1014.4 in Calm     95 % 0.0 in
03:30 13.8 °F 13.2 °F 1014.4 in Calm     96 % 0.0 in
03:45 13.9 °F 13.3 °F 1014.4 in Calm     96 % 0.0 in
04:00 13.8 °F 13.0 °F 1014.4 in Calm     95 % 0.0 in
04:15 13.8 °F 13.0 °F 1014.1 in Calm     95 % 0.0 in
04:30 13.8 °F 13.2 °F 1014.1 in Calm     96 % 0.0 in
04:45 14.0 °F 13.4 °F 1014.1 in Calm     96 % 0.0 in
05:00 14.2 °F 13.6 °F 1014.1 in Calm     96 % 0.0 in
05:15 14.3 °F 13.6 °F 1014.1 in Calm     96 % 0.0 in
05:30 14.3 °F 13.6 °F 1014.1 in Calm     96 % 0.0 in
05:45 14.3 °F 13.6 °F 1014.1 in Calm     96 % 0.0 in
06:00 14.3 °F 13.7 °F 1014.1 in Calm     96 % 0.0 in
06:30 14.7 °F 14.2 °F 1013.8 in Calm     97 % 0.0 in
06:45 14.8 °F 14.3 °F 1013.8 in Calm     97 % 0.0 in
07:00 15.0 °F 14.5 °F 1013.4 in Calm     97 % 0.0 in
07:15 15.2 °F 14.7 °F 1013.4 in Calm     97 % 0.0 in
07:30 15.3 °F 14.9 °F 1013.4 in Calm     97 % 0.0 in
07:45 15.5 °F 15.0 °F 1013.1 in Calm     97 % 0.0 in
08:00 15.7 °F 15.2 °F 1013.1 in Calm     97 % 0.0 in
08:15 16.0 °F 15.5 °F 1013.1 in Calm   1.6 mph 97 % 0.0 in
08:30 16.3 °F 15.6 °F 1013.1 in SSE 1.6 mph 8.0 mph 96 % 0.0 in
08:45 16.5 °F 15.7 °F 1013.1 in Calm   1.6 mph 95 % 0.0 in
09:00 16.8 °F 15.9 °F 1012.8 in Calm   1.6 mph 94 % 0.0 in
09:15 17.3 °F 16.1 °F 1012.8 in Calm   3.2 mph 93 % 0.0 in
09:30 17.7 °F 15.8 °F 1012.8 in South 1.6 mph 8.0 mph 89 % 0.0 in
09:45 17.8 °F 15.9 °F 1012.8 in South 1.6 mph 9.7 mph 89 % 0.0 in
10:00 17.9 °F 15.7 °F 1012.8 in SSE 1.6 mph 11.3 mph 87 % 0.0 in
10:15 18.1 °F 15.9 °F 1012.8 in South 1.6 mph 11.3 mph 87 % 0.0 in
10:30 18.8 °F 15.8 °F 1012.8 in South 3.2 mph 11.3 mph 83 % 0.0 in
10:45 19.1 °F 15.9 °F 1012.8 in SSW 1.6 mph 11.3 mph 82 % 0.0 in
11:00 18.9 °F 15.6 °F 1012.8 in South 3.2 mph 11.3 mph 81 % 0.0 in
11:15 18.8 °F 15.5 °F 1012.8 in SSW 1.6 mph 9.7 mph 81 % 0.0 in
11:30 19.3 °F 16.0 °F 1012.4 in South 1.6 mph 9.7 mph 81 % 0.0 in
11:45 19.6 °F 15.9 °F 1012.4 in SSW 1.6 mph 9.7 mph 79 % 0.0 in
12:00 19.9 °F 15.6 °F 1012.4 in SSW 3.2 mph 14.5 mph 76 % 0.0 in
12:15 20.6 °F 15.3 °F 1012.4 in South 4.8 mph 11.3 mph 72 % 0.0 in
12:30 20.7 °F 15.7 °F 1012.1 in SSW 3.2 mph 12.9 mph 73 % 0.0 in
12:45 20.4 °F 15.4 °F 1012.1 in South 6.4 mph 22.5 mph 73 % 0.0 in
13:00 20.7 °F 15.9 °F 1012.1 in South 3.2 mph 9.7 mph 74 % 0.0 in
13:15 20.7 °F 14.4 °F 1012.1 in SSW 4.8 mph 11.3 mph 67 % 0.0 in
13:30 20.9 °F 13.6 °F 1012.1 in SSW 4.8 mph 14.5 mph 63 % 0.0 in
13:45 20.7 °F 13.4 °F 1012.1 in SSW 6.4 mph 17.7 mph 63 % 0.0 in
14:00 21.3 °F 13.8 °F 1011.7 in SSW 3.2 mph 12.9 mph 62 % 0.0 in
14:15 21.3 °F 12.5 °F 1011.7 in SSW 6.4 mph 16.1 mph 57 % 0.0 in
14:30 21.7 °F 13.3 °F 1011.7 in SSW 3.2 mph 11.3 mph 59 % 0.0 in
14:45 21.0 °F 13.2 °F 1011.4 in SSW 3.2 mph 14.5 mph 61 % 0.0 in
15:00 21.8 °F 13.9 °F 1011.4 in SSW 3.2 mph 12.9 mph 61 % 0.0 in
15:15 21.6 °F 12.7 °F 1011.4 in SSW 3.2 mph 11.3 mph 57 % 0.0 in
15:30 20.9 °F 12.4 °F 1011.4 in SSW 4.8 mph 14.5 mph 58 % 0.0 in
15:45 20.8 °F 13.0 °F 1011.4 in SSW 4.8 mph 17.7 mph 61 % 0.0 in
16:00 20.6 °F 13.1 °F 1011.1 in Calm     62 % 0.0 in
16:15 20.3 °F 13.1 °F 1011.1 in Calm     63 % 0.0 in
16:30 20.3 °F 13.5 °F 1011.1 in Calm     65 % 0.0 in
16:45 20.1 °F 13.1 °F 1011.1 in Calm     64 % 0.0 in
17:00 20.0 °F 13.2 °F 1011.1 in Calm     65 % 0.0 in
17:15 19.9 °F 13.6 °F 1011.1 in Calm     67 % 0.0 in
17:30 19.8 °F 13.5 °F 1011.1 in Calm     67 % 0.0 in
17:45 19.7 °F 13.4 °F 1011.1 in Calm     67 % 0.0 in
18:00 19.4 °F 13.4 °F 1011.1 in Calm     68 % 0.0 in
18:15 19.3 °F 13.2 °F 1010.7 in Calm     68 % 0.0 in
18:30 19.1 °F 12.8 °F 1010.7 in Calm     67 % 0.0 in
18:45 19.1 °F 13.1 °F 1010.7 in Calm     68 % 0.0 in
19:00 19.1 °F 13.9 °F 1010.4 in Calm     72 % 0.0 in
19:15 18.6 °F 13.2 °F 1010.4 in Calm     71 % 0.0 in
19:30 18.4 °F 13.5 °F 1010.4 in Calm     73 % 0.0 in
19:45 18.3 °F 13.1 °F 1010.4 in Calm     72 % 0.0 in
20:00 18.1 °F 13.6 °F 1010.4 in Calm     75 % 0.0 in
20:15 17.8 °F 13.3 °F 1010.4 in Calm     75 % 0.0 in
20:30 17.7 °F 13.6 °F 1010.4 in Calm     77 % 0.0 in
20:45 17.5 °F 13.8 °F 1010.4 in Calm     79 % 0.0 in
21:00 17.3 °F 13.8 °F 1010.4 in Calm     80 % 0.0 in
21:15 17.2 °F 13.9 °F 1010.4 in Calm     81 % 0.0 in
21:30 17.2 °F 14.1 °F 1010.4 in Calm     82 % 0.0 in
21:45 17.2 °F 14.3 °F 1010.4 in Calm     83 % 0.0 in
22:00 16.9 °F 14.4 °F 1010.4 in Calm     85 % 0.0 in
22:15 16.7 °F 14.5 °F 1010.4 in Calm     87 % 0.0 in
22:30 16.4 °F 14.6 °F 1010.0 in Calm     89 % 0.0 in
22:45 16.2 °F 14.5 °F 1010.0 in Calm     90 % 0.0 in
23:00 15.9 °F 14.5 °F 1010.0 in Calm     91 % 0.0 in
23:15 15.8 °F 14.5 °F 1010.0 in Calm     92 % 0.0 in
23:30 15.7 °F 14.4 °F 1010.0 in Calm     92 % 0.0 in
23:45 15.6 °F 14.5 °F 1009.7 in Calm     93 % 0.0 in
Esan sääasema
Terveisin Weather Underground - 2.75 mb

Alkuperäinen skripti  Jim McMurry - jmcmurry@mwt.net Sovitettu myös templatelle  Wim van der Kuil - Leuven-Template.eu

Laitteet joita käytämme:

Sääasema
Davis VP2

Sääasemaohjelma
Cumulus

Sääaseman tietokone
Asus EeePC

Palveluntarjoaja
Suncomet

Davis VP2

Cumulus

Asus EeePC

Suncomet